Time;durP1;ratioP1;P1;durP2;ratioP2;P2;SDS_P1;SDS_P2;PMS_P1;PMS_P2;Temp;Humidity;BMP_temperature;BMP_pressure;BME280_temperature;BME280_humidity;BME280_pressure;Samples;Min_cycle;Max_cycle;Signal;HPM_P1;HPM_P2
2021/07/01 00:02:00;;;;;;;20.58;13.40;;;14.30;99.90;;;15.61;95.50;100330.00;6310443;22;20028;-89
2021/07/01 00:04:27;;;;;;;18.90;13.93;;;14.40;99.90;;;15.65;95.83;100328.81;6309464;22;20011;-89
2021/07/01 00:06:53;;;;;;;23.77;13.75;;;14.30;99.90;;;15.66;95.71;100338.88;6283590;22;20007;-93
2021/07/01 00:09:25;;;;;;;20.02;13.43;;;14.40;99.90;;;15.69;95.61;100323.19;6284866;22;20403;-90
2021/07/01 00:11:56;;;;;;;19.80;12.63;;;14.40;99.90;;;15.73;95.83;100326.81;6310228;22;20023;-91
2021/07/01 00:14:21;;;;;;;22.52;12.85;;;14.40;99.90;;;15.68;95.46;100321.56;6312620;22;20027;-88
2021/07/01 00:16:51;;;;;;;20.20;12.65;;;14.40;99.90;;;15.65;96.10;100328.00;6313965;22;20067;-90
2021/07/01 00:19:19;;;;;;;24.58;15.27;;;14.40;99.90;;;15.64;97.42;100332.81;6312955;22;20429;-91
2021/07/01 00:21:46;;;;;;;20.35;13.52;;;14.40;99.90;;;15.64;97.37;100327.19;6312233;22;20094;-89
2021/07/01 00:24:12;;;;;;;20.05;13.40;;;14.40;99.90;;;15.51;97.71;100330.81;6287354;22;20516;-90
2021/07/01 00:26:38;;;;;;;21.40;14.60;;;14.30;99.90;;;15.58;97.50;100325.97;6286625;22;20022;-89
2021/07/01 00:29:05;;;;;;;24.05;14.98;;;14.20;99.90;;;15.57;97.90;100315.13;6287117;22;20425;-89
2021/07/01 00:31:31;;;;;;;22.48;15.18;;;14.30;99.90;;;15.59;97.91;100324.78;6287343;22;20010;-88
2021/07/01 00:33:59;;;;;;;24.85;14.68;;;14.30;99.90;;;15.57;98.16;100329.97;6260962;22;20049;-89
2021/07/01 00:36:25;;;;;;;20.10;15.10;;;14.20;99.90;;;15.58;98.12;100325.16;6286258;22;20107;-87
2021/07/01 00:38:51;;;;;;;23.10;16.15;;;14.20;99.90;;;15.51;98.44;100333.63;6312353;22;20079;-90
2021/07/01 00:41:17;;;;;;;24.35;15.73;;;14.20;99.90;;;15.52;98.87;100332.38;6311187;22;20086;-89
2021/07/01 00:43:43;;;;;;;24.40;16.48;;;14.30;99.90;;;15.51;98.98;100342.06;6284831;22;20399;-90
2021/07/01 00:46:13;;;;;;;23.25;14.93;;;14.20;99.90;;;15.58;98.91;100330.78;6284909;22;20007;-90
2021/07/01 00:48:39;;;;;;;27.35;17.83;;;14.20;99.90;;;15.48;99.14;100334.38;6284187;22;20015;-90
2021/07/01 00:51:05;;;;;;;24.42;17.20;;;14.30;99.90;;;15.51;99.50;100336.44;6310596;22;20060;-91
2021/07/01 00:53:33;;;;;;;24.00;17.08;;;14.20;99.90;;;15.56;99.59;100338.84;6284585;22;20056;-88
2021/07/01 00:56:01;;;;;;;28.25;17.58;;;14.20;99.90;;;15.50;99.96;100335.63;6284874;22;20467;-90
2021/07/01 00:58:27;;;;;;;28.83;19.00;;;14.30;99.90;;;15.51;100.00;100336.44;6284077;22;20014;-88
2021/07/01 01:03:22;;;;;;;32.97;20.50;;;14.20;99.90;;;15.50;100.00;100340.44;6322123;22;20007;-89
2021/07/01 01:05:48;;;;;;;32.45;20.48;;;14.20;99.90;;;15.46;99.93;100339.59;6284716;22;20309;-89
2021/07/01 01:08:14;;;;;;;35.85;22.83;;;14.20;99.90;;;15.41;100.00;100314.66;6284486;22;20109;-88
2021/07/01 01:10:40;;;;;;;35.58;22.30;;;14.20;99.90;;;15.40;100.00;100305.41;6284490;22;20003;-90
2021/07/01 01:13:06;;;;;;;33.55;22.95;;;14.20;99.90;;;15.46;100.00;100303.81;6285208;22;20115;-89
2021/07/01 01:15:32;;;;;;;35.25;21.83;;;14.10;99.90;;;15.47;100.00;100301.81;6312520;22;20310;-88
2021/07/01 01:18:00;;;;;;;36.90;23.30;;;14.20;99.90;;;15.41;100.00;100292.16;6283849;22;20007;-89
2021/07/01 01:20:26;;;;;;;34.45;20.95;;;14.10;99.90;;;15.42;100.00;100286.09;6284625;22;20038;-89
2021/07/01 01:22:53;;;;;;;30.77;20.35;;;14.10;99.90;;;15.45;99.97;100295.75;6284910;22;20015;-89
2021/07/01 01:25:19;;;;;;;35.60;22.25;;;14.10;99.90;;;15.30;99.76;100286.50;6285592;22;20311;-88
2021/07/01 01:27:46;;;;;;;31.38;19.92;;;14.00;99.90;;;15.37;99.94;100289.31;6285826;22;20007;-90
2021/07/01 01:30:13;;;;;;;33.38;21.50;;;14.10;99.90;;;15.35;100.00;100283.28;6284698;22;20094;-88
2021/07/01 01:32:39;;;;;;;30.92;19.48;;;14.00;99.90;;;15.41;100.00;100290.13;6283679;22;20013;-88
2021/07/01 01:35:06;;;;;;;35.50;23.65;;;14.10;99.90;;;15.34;100.00;100283.69;6283851;22;20007;-88
2021/07/01 01:37:32;;;;;;;33.90;22.10;;;14.10;99.90;;;15.31;100.00;100282.47;6311230;22;20080;-88
2021/07/01 01:39:58;;;;;;;36.20;24.55;;;14.00;99.90;;;15.35;100.00;100285.31;6283938;22;20014;-89
2021/07/01 01:42:24;;;;;;;34.50;23.52;;;14.10;99.90;;;15.36;100.00;100286.91;6284062;22;20011;-87
2021/07/01 01:44:50;;;;;;;35.90;24.20;;;14.10;99.90;;;15.35;100.00;100283.28;6310203;22;20011;-88
2021/07/01 01:47:19;;;;;;;35.58;24.60;;;14.10;99.90;;;15.43;100.00;100290.53;6284158;22;20274;-89
2021/07/01 01:49:48;;;;;;;31.73;21.52;;;14.10;99.90;;;15.49;100.00;100285.34;6283881;22;20337;-89
2021/07/01 01:52:15;;;;;;;31.13;21.85;;;14.10;99.90;;;15.50;100.00;100281.34;6284146;22;20017;-88
2021/07/01 01:54:42;;;;;;;32.05;21.75;;;14.20;99.90;;;15.45;100.00;100270.41;6283655;22;20003;-89
2021/07/01 01:57:09;;;;;;;29.70;19.95;;;14.10;99.90;;;15.47;100.00;100284.91;6283398;22;20003;-90
2021/07/01 01:59:35;;;;;;;33.33;21.77;;;14.10;99.90;;;15.28;100.00;100280.47;6283229;22;20007;-90
2021/07/01 02:02:03;;;;;;;32.28;21.88;;;14.00;99.90;;;15.34;100.00;100275.25;6291922;22;20003;-87
2021/07/01 02:04:29;;;;;;;31.38;20.83;;;14.00;99.90;;;15.38;100.00;100284.50;6300813;22;20019;-88
2021/07/01 02:06:55;;;;;;;29.55;21.13;;;14.10;99.90;;;15.32;100.00;100279.25;6284391;22;20045;-87
2021/07/01 02:09:22;;;;;;;33.28;20.20;;;14.10;99.90;;;15.35;100.00;100283.28;6284303;22;20031;-88
2021/07/01 02:11:49;;;;;;;35.28;21.67;;;14.10;99.90;;;15.36;100.00;100278.44;6285689;22;20368;-88
2021/07/01 02:14:19;;;;;;;31.40;20.70;;;14.10;99.90;;;15.25;100.00;100272.81;6284407;22;20007;-90
2021/07/01 02:16:46;;;;;;;30.38;20.00;;;14.00;99.90;;;15.29;99.79;100280.06;6311454;22;20087;-87
2021/07/01 02:19:12;;;;;;;29.27;20.00;;;14.10;99.90;;;15.37;99.55;100275.25;6286259;22;20027;-91
2021/07/01 02:21:38;;;;;;;30.73;21.80;;;14.00;99.90;;;15.27;99.27;100282.47;6287089;22;20011;-90
2021/07/01 02:24:04;;;;;;;31.67;20.88;;;14.00;99.90;;;15.33;99.59;100280.06;6285270;22;20007;-89
2021/07/01 02:26:30;;;;;;;32.00;21.75;;;14.00;99.90;;;15.38;99.45;100282.47;6285297;22;20516;-89
2021/07/01 02:28:56;;;;;;;27.48;19.48;;;14.00;99.90;;;15.36;99.47;100279.25;6285529;22;20007;-89
2021/07/01 02:31:22;;;;;;;32.70;20.10;;;14.00;99.90;;;15.28;99.20;100284.06;6286694;22;20003;-90
2021/07/01 02:33:48;;;;;;;27.77;18.60;;;14.10;99.90;;;15.37;98.61;100282.88;6286477;22;19999;-89
2021/07/01 02:36:14;;;;;;;29.65;19.45;;;14.10;99.90;;;15.37;98.86;100283.69;6292376;22;20010;-90
2021/07/01 02:38:39;;;;;;;27.02;19.17;;;14.00;99.90;;;15.38;98.95;100285.28;6289661;22;20359;-89
2021/07/01 02:41:05;;;;;;;32.90;19.20;;;14.10;99.90;;;15.38;99.15;100282.47;6311375;22;20003;-89
2021/07/01 02:43:31;;;;;;;32.22;18.55;;;14.00;99.90;;;15.37;98.39;100280.88;6284105;22;20013;-89
2021/07/01 02:45:57;;;;;;;26.33;17.92;;;14.00;99.90;;;15.38;98.72;100284.50;6283560;22;20037;-89
2021/07/01 02:48:23;;;;;;;26.75;18.38;;;14.00;99.90;;;15.32;99.93;100287.69;6283591;22;20049;-90
2021/07/01 02:50:49;;;;;;;25.52;18.70;;;14.10;99.90;;;15.32;99.48;100289.69;6284345;22;20011;-89
2021/07/01 02:53:15;;;;;;;25.92;16.67;;;14.00;99.90;;;15.36;99.07;100290.53;6282969;22;20010;-89
2021/07/01 02:55:40;;;;;;;29.08;17.63;;;14.10;99.90;;;15.28;99.16;100277.66;6310451;22;20032;-90
2021/07/01 02:58:06;;;;;;;25.63;16.73;;;14.00;99.90;;;15.35;99.13;100283.28;6284142;22;20007;-86
2021/07/01 03:00:32;;;;;;;24.85;16.90;;;14.00;99.90;;;15.29;98.07;100287.69;6283470;22;20007;-89
2021/07/01 03:02:58;;;;;;;29.73;16.90;;;14.00;99.90;;;15.31;98.22;100280.44;6283251;22;20011;-88
2021/07/01 03:05:24;;;;;;;28.80;17.30;;;14.00;99.90;;;15.34;97.95;100281.69;6282751;22;20013;-90
2021/07/01 03:07:50;;;;;;;30.55;18.17;;;14.00;99.90;;;15.29;98.73;100284.88;6310918;22;20003;-89
2021/07/01 03:10:16;;;;;;;27.60;17.17;;;14.00;99.90;;;15.27;98.85;100293.72;6283900;22;20002;-89
2021/07/01 03:12:41;;;;;;;25.00;16.27;;;14.10;99.90;;;15.35;98.79;100290.94;6311145;22;19999;-88
2021/07/01 03:15:08;;;;;;;29.02;18.27;;;14.10;99.90;;;15.35;98.81;100285.31;6283381;22;20014;-88
2021/07/01 03:17:38;;;;;;;25.85;17.65;;;14.00;99.90;;;15.29;98.21;100296.13;6283763;22;20075;-88
2021/07/01 03:20:07;;;;;;;29.65;18.70;;;14.00;99.90;;;15.32;98.55;100284.88;6311653;22;20013;-87
2021/07/01 03:22:33;;;;;;;29.50;18.73;;;14.00;99.90;;;15.34;98.75;100283.69;6287692;22;20209;-88
2021/07/01 03:24:59;;;;;;;27.02;18.20;;;14.10;99.90;;;15.29;99.02;100282.06;6286870;22;20015;-89
2021/07/01 03:27:25;;;;;;;32.05;19.75;;;14.00;99.90;;;15.28;98.94;100284.06;6288030;22;20305;-89
2021/07/01 03:29:50;;;;;;;27.05;19.73;;;14.00;99.90;;;15.30;98.94;100278.84;6292847;22;20002;-88
2021/07/01 03:32:17;;;;;;;29.63;20.15;;;14.00;99.90;;;15.29;99.02;100276.44;6314526;22;20003;-89
2021/07/01 03:34:43;;;;;;;34.25;21.73;;;14.00;99.90;;;15.29;99.30;100279.25;6284922;22;20019;-90
2021/07/01 03:37:25;;;;;;;;;;;;;;;;;;;;;
2021/07/01 03:39:52;;;;;;;29.67;19.15;;;13.90;99.90;;;15.28;99.23;100274.84;6314199;22;20456;-88
2021/07/01 03:42:20;;;;;;;30.42;21.85;;;13.90;99.90;;;15.31;99.81;100283.25;6284250;22;20033;-92
2021/07/01 03:44:46;;;;;;;31.08;21.15;;;14.00;99.90;;;15.36;99.72;100278.44;6282928;22;20003;-90
2021/07/01 03:47:12;;;;;;;32.47;22.25;;;14.00;99.90;;;15.29;99.43;100287.69;6282486;22;20014;-91
2021/07/01 03:49:38;;;;;;;37.25;22.92;;;14.00;99.90;;;15.17;99.38;100288.06;6281881;22;20015;-87
2021/07/01 03:52:04;;;;;;;35.53;23.20;;;14.00;99.90;;;15.23;99.78;100276.03;6282545;22;20345;-89
2021/07/01 03:54:30;;;;;;;35.67;22.80;;;14.00;99.90;;;15.21;99.35;100281.25;6281469;22;20003;-88
2021/07/01 03:57:00;;;;;;;33.03;21.80;;;14.00;99.90;;;15.22;98.72;100273.59;6281197;22;20007;-89
2021/07/01 03:59:26;;;;;;;31.25;20.40;;;14.00;99.90;;;15.29;98.48;100284.88;6281728;22;20011;-89
2021/07/01 04:01:52;;;;;;;33.22;21.58;;;14.00;99.90;;;15.24;98.85;100288.09;6283366;22;20003;-86
2021/07/01 04:04:18;;;;;;;28.30;20.42;;;14.00;99.90;;;15.31;97.91;100285.31;6309680;22;20469;-87
2021/07/01 04:06:44;;;;;;;33.55;21.63;;;14.00;99.90;;;15.26;98.41;100288.47;6282841;22;20007;-89
2021/07/01 04:09:11;;;;;;;31.02;20.75;;;14.00;99.90;;;15.28;98.64;100292.50;6282892;22;20033;-89
2021/07/01 04:11:37;;;;;;;30.50;20.35;;;14.00;99.90;;;15.35;98.37;100279.69;6309123;22;20007;-89
2021/07/01 04:14:04;;;;;;;33.95;20.60;;;14.00;99.90;;;15.37;97.51;100288.50;6283382;22;20010;-88
2021/07/01 04:16:30;;;;;;;31.50;21.98;;;14.00;99.90;;;15.27;97.82;100282.47;6282956;22;20010;-89
2021/07/01 04:18:56;;;;;;;34.85;21.83;;;14.10;99.90;;;15.27;97.54;100282.47;6281743;22;20072;-86
2021/07/01 04:21:27;;;;;;;30.33;21.50;;;14.00;99.90;;;15.25;97.98;100279.22;6280817;22;20111;-88
2021/07/01 04:23:58;;;;;;;35.90;22.08;;;14.00;99.90;;;15.33;97.96;100282.88;6308799;22;20010;-88
2021/07/01 04:26:26;;;;;;;31.02;21.70;;;14.00;99.90;;;15.42;97.85;100280.47;6290393;22;20008;-89
2021/07/01 04:28:52;;;;;;;39.85;24.92;;;14.00;99.90;;;15.38;97.87;100282.47;6287261;22;20053;-90
2021/07/01 04:31:20;;;;;;;38.80;25.17;;;14.10;99.90;;;15.42;98.07;100279.66;6312921;22;20000;-90
2021/07/01 04:33:47;;;;;;;32.30;22.75;;;14.10;99.90;;;15.46;98.04;100286.94;6286144;22;20009;-90
2021/07/01 04:36:13;;;;;;;35.50;22.98;;;14.10;99.90;;;15.43;97.63;100287.72;6287665;22;20026;-88
2021/07/01 04:38:39;;;;;;;29.50;20.67;;;14.10;99.90;;;15.35;97.11;100279.69;6308443;22;20018;-88
2021/07/01 04:41:05;;;;;;;29.88;20.70;;;14.20;99.90;;;15.31;97.31;100286.06;6282353;22;20124;-87
2021/07/01 04:43:31;;;;;;;32.20;18.98;;;14.00;99.90;;;15.28;97.74;100278.44;6283007;22;20011;-89
2021/07/01 04:45:57;;;;;;;29.38;17.63;;;14.00;99.90;;;15.42;97.39;100285.28;6280947;22;20012;-91
2021/07/01 04:48:22;;;;;;;28.45;17.65;;;14.10;99.90;;;15.48;96.96;100281.72;6308450;22;20007;-88
2021/07/01 04:50:48;;;;;;;28.05;18.15;;;14.10;99.90;;;15.43;97.06;100286.91;6281474;22;20003;-87
2021/07/01 04:53:14;;;;;;;29.10;18.30;;;14.10;99.90;;;15.43;97.24;100284.09;6281375;22;20441;-88
2021/07/01 04:55:40;;;;;;;27.80;18.00;;;14.10;99.90;;;15.48;97.02;100280.91;6284028;22;20026;-89
2021/07/01 04:58:06;;;;;;;28.25;17.67;;;14.10;99.90;;;15.53;96.60;100291.78;6285804;22;20018;-90
2021/07/01 05:00:35;;;;;;;24.17;14.95;;;14.20;99.90;;;15.49;96.31;100288.16;6281200;22;20034;-91
2021/07/01 05:03:02;;;;;;;33.40;17.98;;;14.10;99.90;;;15.46;96.60;100291.75;6308798;22;20015;-91
2021/07/01 05:05:28;;;;;;;21.58;16.10;;;14.20;99.90;;;15.38;96.28;100292.94;6310488;22;20007;-89
2021/07/01 05:07:54;;;;;;;26.42;16.02;;;14.10;99.90;;;15.42;95.79;100296.56;6283390;22;20030;-90
2021/07/01 05:10:20;;;;;;;30.40;16.75;;;14.10;99.90;;;15.42;96.36;100291.72;6283898;22;20441;-88
2021/07/01 05:12:46;;;;;;;25.75;15.63;;;14.10;99.90;;;15.37;96.97;100288.50;6285353;22;20003;-88
2021/07/01 05:15:12;;;;;;;27.60;15.68;;;14.10;99.90;;;15.46;97.63;100301.00;6312154;22;20006;-89
2021/07/01 05:17:38;;;;;;;23.63;15.98;;;14.10;99.90;;;15.43;97.05;100289.72;6316025;22;20007;-87
2021/07/01 05:20:08;;;;;;;22.63;14.68;;;14.20;99.90;;;15.47;96.79;100302.63;6288139;22;20318;-91
2021/07/01 05:22:34;;;;;;;21.17;13.60;;;14.10;99.90;;;15.41;96.66;100295.75;6289398;22;20007;-87
2021/07/01 05:25:00;;;;;;;24.92;13.77;;;14.20;99.90;;;15.32;97.72;100298.94;6290023;22;20007;-87
2021/07/01 05:27:26;;;;;;;22.67;13.40;;;14.10;99.90;;;15.03;98.29;100296.44;6288221;22;20003;-85
2021/07/01 05:29:52;;;;;;;23.05;14.45;;;14.00;99.90;;;15.24;98.27;100299.34;6283897;22;20172;-87
2021/07/01 05:32:18;;;;;;;22.88;12.55;;;14.00;99.90;;;15.32;97.37;100301.75;6284167;22;20010;-87
2021/07/01 05:34:44;;;;;;;18.48;12.38;;;14.10;99.90;;;15.40;97.47;100294.16;6283959;22;20058;-88
2021/07/01 05:37:11;;;;;;;19.08;11.90;;;14.10;99.90;;;15.32;97.24;100303.78;6284401;22;20003;-90
2021/07/01 05:39:37;;;;;;;15.70;10.18;;;14.10;99.90;;;15.38;97.27;100298.56;6313163;22;20010;-89
2021/07/01 05:42:04;;;;;;;17.05;11.05;;;14.00;99.90;;;15.35;96.46;100290.94;6313267;22;20082;-90
2021/07/01 05:44:30;;;;;;;17.40;10.00;;;14.10;99.90;;;15.38;96.65;100307.03;6312820;22;20004;-91
2021/07/01 05:46:56;;;;;;;21.23;10.80;;;14.10;99.90;;;15.42;96.65;100297.34;6285340;22;20014;-89
2021/07/01 05:49:22;;;;;;;20.67;10.98;;;14.10;99.90;;;15.48;96.88;100304.22;6294339;22;20003;-89
2021/07/01 05:51:50;;;;;;;19.30;10.63;;;14.20;99.90;;;15.31;97.17;100314.22;6298422;22;20090;-88
2021/07/01 05:54:23;;;;;;;14.43;10.90;;;14.10;99.90;;;15.36;97.07;100307.41;6313242;22;20405;-89
2021/07/01 05:56:49;;;;;;;15.55;10.90;;;14.10;99.90;;;15.32;97.66;100303.78;6312996;22;20086;-88
2021/07/01 05:59:17;;;;;;;16.33;10.02;;;14.10;99.90;;;15.33;97.31;100311.00;6286968;22;20074;-90
2021/07/01 06:01:43;;;;;;;15.75;11.15;;;14.10;99.90;;;15.28;98.35;100317.81;6286964;22;20003;-88
2021/07/01 06:04:09;;;;;;;15.70;9.90;;;14.10;99.90;;;15.44;97.67;100302.59;6289939;22;20090;-87
2021/07/01 06:06:44;;;;;;;18.90;10.80;;;14.10;99.90;;;15.43;97.38;100307.41;6288459;22;20014;-88
2021/07/01 06:09:15;;;;;;;15.15;11.00;;;14.10;99.90;;;15.29;98.00;100308.19;6287796;22;20030;-85
2021/07/01 06:11:43;;;;;;;14.05;10.77;;;14.10;99.90;;;15.31;97.32;100305.78;6286916;22;20042;-91
2021/07/01 06:14:09;;;;;;;14.10;9.88;;;14.10;99.90;;;15.26;97.39;100305.38;6285822;22;20007;-88
2021/07/01 06:16:38;;;;;;;14.45;9.93;;;14.10;99.90;;;15.27;97.47;100299.34;6286171;22;20003;-91
2021/07/01 06:19:04;;;;;;;12.27;8.38;;;14.10;99.90;;;15.34;97.64;100306.19;6312052;22;20412;-88
2021/07/01 06:21:33;;;;;;;8.82;7.93;;;14.10;99.90;;;15.26;98.49;100309.00;6314891;22;20014;-87
2021/07/01 06:23:59;;;;;;;11.07;7.65;;;14.10;99.90;;;15.29;98.55;100313.00;6286439;22;20341;-90
2021/07/01 06:26:28;;;;;;;7.50;6.43;;;14.10;99.90;;;15.25;97.57;100309.41;6285830;22;20056;-86
2021/07/01 06:28:57;;;;;;;9.35;7.90;;;14.00;99.90;;;15.27;97.99;100309.78;6284992;22;20040;-87
2021/07/01 06:31:24;;;;;;;8.98;7.25;;;14.10;99.90;;;15.15;98.41;100322.22;6312419;22;20010;-89
2021/07/01 06:33:50;;;;;;;11.52;9.18;;;13.90;99.90;;;15.02;99.95;100323.78;6284871;22;20007;-89
2021/07/01 06:36:21;;;;;;;9.98;8.68;;;14.00;99.90;;;15.12;99.74;100316.59;6290505;22;20035;-88
2021/07/01 06:38:53;;;;;;;14.15;9.77;;;14.00;99.90;;;15.22;99.30;100310.97;6282793;22;20055;-87
2021/07/01 06:41:21;;;;;;;12.73;11.00;;;13.90;99.90;;;15.13;99.38;100321.81;6257648;22;20046;-86
2021/07/01 06:43:49;;;;;;;17.90;12.30;;;13.90;99.90;;;15.11;98.36;100323.41;6282660;22;20007;-86
2021/07/01 06:46:19;;;;;;;16.20;12.00;;;13.80;99.90;;;15.14;99.34;100317.81;6255009;22;20003;-87
2021/07/01 06:48:48;;;;;;;19.25;13.20;;;13.90;99.90;;;15.04;99.90;100323.38;6282044;22;20008;-86
2021/07/01 06:51:16;;;;;;;20.98;13.18;;;13.80;99.90;;;15.01;100.00;100332.63;6281977;22;20004;-85
2021/07/01 06:53:45;;;;;;;17.25;13.43;;;13.80;99.90;;;15.12;100.00;100327.84;6254197;22;20003;-86
2021/07/01 06:56:12;;;;;;;21.27;13.88;;;13.80;99.90;;;14.95;99.90;100335.00;6280741;22;20004;-84
2021/07/01 06:58:43;;;;;;;16.35;12.60;;;13.80;99.90;;;14.98;99.72;100331.41;6252291;22;20420;-86
2021/07/01 07:01:10;;;;;;;23.90;13.07;;;13.80;99.90;;;15.10;98.83;100335.84;6268598;22;20007;-84
2021/07/01 07:03:37;;;;;;;19.27;12.93;;;13.80;99.90;;;15.15;98.80;100336.31;6298237;22;20073;-88
2021/07/01 07:06:05;;;;;;;14.80;12.07;;;13.90;99.90;;;15.23;98.93;100337.91;6253135;22;20012;-87
2021/07/01 07:08:32;;;;;;;15.27;11.98;;;14.00;99.90;;;15.43;98.06;100341.19;6280760;22;20031;-86
2021/07/01 07:11:00;;;;;;;19.20;11.23;;;14.00;99.90;;;15.39;95.69;100340.38;6253121;22;20127;-87
2021/07/01 07:13:26;;;;;;;16.77;10.75;;;14.10;99.90;;;15.59;95.86;100343.66;6253284;22;20058;-85
2021/07/01 07:16:03;;;;;;;16.15;10.70;;;14.20;99.90;;;15.64;95.88;100335.63;6278569;22;20010;-87
2021/07/01 07:18:34;;;;;;;15.68;11.13;;;14.20;99.90;;;15.58;95.30;100342.84;6252490;22;20034;-87
2021/07/01 07:21:17;;;;;;;19.45;12.15;;;14.20;99.90;;;15.59;95.96;100336.03;6278908;22;20007;-87
2021/07/01 07:23:55;;;;;;;17.83;11.60;;;14.20;99.90;;;15.56;95.25;100347.28;6253402;22;20091;-86
2021/07/01 07:26:25;;;;;;;18.90;13.02;;;14.20;99.90;;;15.62;96.00;100343.69;6254271;22;20007;-86
2021/07/01 07:28:56;;;;;;;21.92;12.80;;;14.30;99.90;;;15.47;95.12;100347.66;6254000;22;20085;-86
2021/07/01 07:31:36;;;;;;;19.55;12.43;;;14.20;99.90;;;15.52;95.10;100352.91;6280605;22;20000;-84
2021/07/01 07:34:04;;;;;;;20.00;11.45;;;14.20;99.90;;;15.26;94.89;100351.19;6279155;22;20027;-87
2021/07/01 07:36:33;;;;;;;16.17;11.45;;;14.10;99.90;;;15.41;95.27;100360.47;6253573;22;20082;-86
2021/07/01 07:39:00;;;;;;;15.20;10.48;;;14.10;99.90;;;15.49;94.13;100361.34;6254011;22;20008;-87
2021/07/01 07:41:27;;;;;;;19.40;10.90;;;14.20;99.90;;;15.64;92.90;100362.97;6253776;22;20030;-86
2021/07/01 07:43:55;;;;;;;15.43;10.50;;;14.30;99.90;;;15.80;93.22;100360.59;6253964;22;20013;-88
2021/07/01 07:46:26;;;;;;;14.80;10.02;;;14.40;99.90;;;15.97;93.34;100367.44;6254214;22;20364;-86
2021/07/01 07:48:53;;;;;;;15.43;9.77;;;14.50;99.90;;;15.72;91.95;100361.78;6255705;22;20018;-87
2021/07/01 07:51:27;;;;;;;17.95;9.65;;;14.50;99.90;;;15.88;92.35;100362.22;6281181;22;20015;-87
2021/07/01 07:54:05;;;;;;;14.70;9.52;;;14.50;99.90;;;15.92;92.65;100363.03;6255794;22;20004;-88
2021/07/01 07:56:38;;;;;;;16.90;10.18;;;14.50;99.90;;;15.99;93.44;100359.41;6255984;22;20004;-84
2021/07/01 07:59:10;;;;;;;15.57;10.18;;;14.60;99.90;;;15.95;92.10;100362.22;6256747;22;20010;-87
2021/07/01 08:01:38;;;;;;;15.82;10.00;;;14.50;99.90;;;15.94;92.70;100362.63;6254541;22;20011;-89
2021/07/01 08:04:12;;;;;;;13.38;9.85;;;14.60;99.90;;;15.89;91.62;100360.22;6255328;22;20011;-87
2021/07/01 08:06:42;;;;;;;15.43;9.80;;;14.60;99.90;;;15.65;91.47;100362.59;6255678;22;20018;-88
2021/07/01 08:09:12;;;;;;;13.93;8.98;;;14.50;99.90;;;15.71;91.50;100363.81;6255664;22;20004;-89
2021/07/01 08:11:42;;;;;;;15.45;9.15;;;14.40;99.90;;;15.66;91.74;100363.41;6281940;22;20384;-90
2021/07/01 08:14:08;;;;;;;17.83;9.27;;;14.40;99.90;;;15.64;91.34;100365.78;6257432;22;20035;-89
2021/07/01 08:16:35;;;;;;;16.60;9.73;;;14.40;99.90;;;15.76;92.30;100354.94;6284792;22;20110;-87
2021/07/01 08:19:03;;;;;;;15.65;8.65;;;14.40;99.90;;;15.75;91.30;100367.44;6284444;22;20003;-87
2021/07/01 08:21:31;;;;;;;16.48;8.70;;;14.40;99.90;;;15.68;91.84;100350.53;6284497;22;20029;-86
2021/07/01 08:23:58;;;;;;;17.85;9.73;;;14.50;99.90;;;15.68;91.00;100363.78;6282237;22;20040;-85
2021/07/01 08:26:24;;;;;;;14.95;9.30;;;14.40;99.90;;;15.74;91.46;100371.44;6256697;22;20093;-84
2021/07/01 08:28:54;;;;;;;17.27;8.52;;;14.50;99.90;;;15.74;90.14;100368.63;6256032;22;20015;-85
2021/07/01 08:31:21;;;;;;;15.10;8.38;;;14.40;99.90;;;15.71;90.75;100363.81;6258307;22;20062;-84
2021/07/01 08:33:50;;;;;;;18.17;8.23;;;14.40;99.90;;;15.77;90.85;100364.19;6257814;22;20008;-86
2021/07/01 08:36:22;;;;;;;15.82;8.45;;;14.40;99.90;;;15.78;90.11;100361.00;6285112;22;20049;-83
2021/07/01 08:38:56;;;;;;;18.08;8.32;;;14.50;99.90;;;15.87;90.51;100362.59;6260525;22;20012;-85
2021/07/01 08:41:46;;;;;;;18.73;7.82;;;14.50;99.90;;;15.98;90.38;100363.44;6259983;22;20011;-87
2021/07/01 08:44:17;;;;;;;22.85;9.65;;;14.60;99.90;;;15.98;91.24;100372.69;6254714;23;20520;-86
2021/07/01 08:47:16;;;;;;;17.48;8.77;;;14.60;99.90;;;15.89;91.29;100366.66;6252838;23;20004;-86
2021/07/01 08:49:55;;;;;;;18.83;9.07;;;14.60;99.90;;;15.94;91.52;100365.44;6227119;23;20008;-88
2021/07/01 08:52:32;;;;;;;18.55;10.52;;;14.60;99.90;;;15.77;91.51;100375.47;6253891;23;20062;-87
2021/07/01 08:55:06;;;;;;;19.17;11.13;;;14.60;99.90;;;15.91;91.54;100371.88;6227760;23;20245;-86
2021/07/01 08:57:37;;;;;;;17.30;11.90;;;14.50;99.90;;;16.01;91.40;100369.06;6252306;23;20014;-86
2021/07/01 09:00:17;;;;;;;22.23;15.50;;;14.60;99.90;;;15.96;92.09;100382.75;6226491;23;20058;-88
2021/07/01 09:03:09;;;;;;;24.17;18.55;;;14.60;99.90;;;15.87;92.77;100374.69;6227113;23;20453;-87
2021/07/01 09:05:38;;;;;;;29.10;20.45;;;14.60;99.90;;;15.92;93.33;100376.31;6250500;23;20009;-87
2021/07/01 09:08:19;;;;;;;26.70;20.48;;;14.60;99.90;;;15.75;95.05;100381.50;6250743;23;20062;-87
2021/07/01 09:10:53;;;;;;;26.48;20.10;;;14.60;99.90;;;15.75;93.98;100381.50;6225348;23;20004;-84
2021/07/01 09:13:22;;;;;;;29.40;20.10;;;14.60;99.90;;;16.07;94.29;100384.38;6226056;23;20030;-86
2021/07/01 09:15:50;;;;;;;28.98;21.83;;;14.70;99.90;;;16.16;93.14;100381.94;6251300;23;20086;-87
2021/07/01 09:18:16;;;;;;;32.17;22.23;;;14.80;99.90;;;16.22;93.81;100382.34;6252687;23;20012;-84
2021/07/01 09:20:43;;;;;;;34.75;24.27;;;14.90;99.90;;;16.44;93.15;100388.78;6262881;23;20055;-89
2021/07/01 09:23:12;;;;;;;32.25;21.63;;;15.00;99.90;;;16.44;92.09;100383.16;6257134;23;20039;-88
2021/07/01 09:25:42;;;;;;;27.90;20.65;;;15.00;99.90;;;16.24;92.89;100380.75;6253949;23;20459;-87
2021/07/01 09:28:08;;;;;;;32.83;22.60;;;15.00;99.90;;;16.24;93.59;100386.38;6250673;23;20069;-86
2021/07/01 09:30:34;;;;;;;32.70;23.30;;;14.90;99.90;;;16.08;93.73;100385.97;6225247;23;20461;-88
2021/07/01 09:33:07;;;;;;;34.03;24.10;;;14.80;99.90;;;15.98;94.81;100378.31;6250342;23;20000;-89
2021/07/01 09:35:37;;;;;;;28.88;21.35;;;14.70;99.90;;;15.96;94.16;100383.53;6251683;23;20063;-86
2021/07/01 09:38:07;;;;;;;29.88;22.60;;;14.70;99.90;;;15.90;94.09;100381.50;6250792;23;20012;-89
2021/07/01 09:40:37;;;;;;;29.45;22.08;;;14.70;99.90;;;15.86;94.33;100384.31;6225673;23;20012;-85
2021/07/01 09:43:08;;;;;;;33.75;22.92;;;14.70;99.90;;;15.95;94.59;100379.13;6250937;23;20062;-85
2021/07/01 09:45:37;;;;;;;26.10;18.98;;;14.70;99.90;;;15.65;95.40;100387.91;6224663;23;20024;-85
2021/07/01 09:48:13;;;;;;;27.40;20.23;;;14.70;99.90;;;15.82;96.64;100384.34;6249752;23;20032;-85
2021/07/01 09:50:47;;;;;;;31.20;19.50;;;14.70;99.90;;;16.04;95.26;100392.81;6250406;23;20024;-88
2021/07/01 09:53:32;;;;;;;25.60;19.23;;;14.80;99.90;;;16.23;95.15;100392.41;6250793;23;20008;-86
2021/07/01 09:56:07;;;;;;;23.92;18.75;;;14.80;99.90;;;16.19;94.54;100392.41;6224833;23;20061;-85
2021/07/01 09:58:43;;;;;;;28.15;19.08;;;14.80;99.90;;;16.25;94.94;100387.97;6252425;23;20035;-86
2021/07/01 10:01:28;;;;;;;25.67;18.67;;;14.90;99.90;;;16.01;94.20;100394.41;6226598;23;20007;-86
2021/07/01 10:03:59;;;;;;;28.90;19.48;;;14.80;99.90;;;15.81;95.16;100388.34;6251293;23;20039;-85
2021/07/01 10:06:27;;;;;;;25.25;19.48;;;14.70;99.90;;;15.92;96.28;100396.84;6252430;23;20015;-84
2021/07/01 10:08:54;;;;;;;26.70;19.45;;;14.70;99.90;;;16.08;94.29;100391.63;6226199;23;20015;-86